createdAt,value
2022-11-17T00:02:18.824Z,2.13
2022-11-17T00:04:45.646Z,2.67
2022-11-17T00:07:12.698Z,1.70
2022-11-17T00:09:39.562Z,1.87
2022-11-17T00:12:29.772Z,1.50
2022-11-17T00:14:59.073Z,1.43
2022-11-17T00:17:25.937Z,1.20
2022-11-17T00:20:11.071Z,1.53
2022-11-17T00:22:37.695Z,1.67
2022-11-17T00:25:04.557Z,1.40
2022-11-17T00:27:31.093Z,1.80
2022-11-17T00:29:57.920Z,1.27
2022-11-17T00:32:42.906Z,1.47
2022-11-17T00:35:09.913Z,1.27
2022-11-17T00:37:38.845Z,1.50
2022-11-17T00:40:06.310Z,1.27
2022-11-17T00:42:33.153Z,1.30
2022-11-17T00:45:00.085Z,1.27
2022-11-17T00:47:26.675Z,1.10
2022-11-17T00:49:53.248Z,1.20
2022-11-17T00:52:19.827Z,1.50
2022-11-17T00:54:46.701Z,1.17
2022-11-17T00:57:13.305Z,1.27
2022-11-17T00:59:40.723Z,0.90
2022-11-17T01:02:07.268Z,1.60
2022-11-17T01:04:33.799Z,1.40
2022-11-17T01:07:00.723Z,1.43
2022-11-17T01:09:27.809Z,1.40
2022-11-17T01:11:54.375Z,1.73
2022-11-17T01:14:27.588Z,1.33
2022-11-17T01:16:54.710Z,1.10
2022-11-17T01:19:23.565Z,2.30
2022-11-17T01:21:50.165Z,1.27
2022-11-17T01:24:17.696Z,1.70
2022-11-17T01:26:45.774Z,1.67
2022-11-17T01:29:14.402Z,1.87
2022-11-17T01:31:43.477Z,1.90
2022-11-17T01:34:10.792Z,1.83
2022-11-17T01:36:59.210Z,2.00
2022-11-17T01:39:29.995Z,1.70
2022-11-17T01:41:57.984Z,1.60
2022-11-17T01:44:54.320Z,1.90
2022-11-17T01:47:30.407Z,2.00
2022-11-17T01:50:08.228Z,1.80
2022-11-17T01:52:39.036Z,2.23
2022-11-17T01:55:08.778Z,2.20
2022-11-17T01:57:44.987Z,2.30
2022-11-17T02:00:12.942Z,1.70
2022-11-17T02:02:42.028Z,2.00
2022-11-17T02:05:29.556Z,1.80
2022-11-17T02:07:59.876Z,2.37
2022-11-17T02:10:30.248Z,3.13
2022-11-17T02:12:57.353Z,3.33
2022-11-17T02:15:24.913Z,3.53
2022-11-17T02:17:52.418Z,2.90
2022-11-17T02:20:55.794Z,3.60
2022-11-17T02:23:37.241Z,3.30
2022-11-17T02:26:41.806Z,3.00
2022-11-17T02:29:22.841Z,3.97
2022-11-17T02:31:58.260Z,3.57
2022-11-17T02:34:47.805Z,3.87
2022-11-17T02:37:53.882Z,3.30
2022-11-17T02:40:31.357Z,3.40
2022-11-17T02:43:18.664Z,4.60
2022-11-17T02:45:51.308Z,3.90
2022-11-17T02:48:27.364Z,3.80
2022-11-17T02:50:55.514Z,4.77
2022-11-17T02:53:25.482Z,4.53
2022-11-17T02:55:53.757Z,4.43
2022-11-17T02:58:22.253Z,3.77
2022-11-17T03:01:10.852Z,4.27
2022-11-17T03:04:01.590Z,4.60
2022-11-17T03:06:35.887Z,4.30
2022-11-17T03:09:19.961Z,4.30
2022-11-17T03:11:59.184Z,4.73
2022-11-17T03:14:40.009Z,5.37
2022-11-17T03:17:19.566Z,4.80
2022-11-17T03:20:04.820Z,4.63
2022-11-17T03:22:50.449Z,5.20
2022-11-17T03:25:23.169Z,4.10
2022-11-17T03:27:56.415Z,5.33
2022-11-17T03:30:25.747Z,4.90
2022-11-17T03:32:58.695Z,5.30
2022-11-17T03:35:29.875Z,4.60
2022-11-17T03:38:04.090Z,4.70
2022-11-17T03:40:33.122Z,4.87
2022-11-17T03:43:05.242Z,5.20
2022-11-17T03:45:44.766Z,4.80
2022-11-17T03:48:18.538Z,4.10
2022-11-17T03:50:58.365Z,5.37
2022-11-17T03:53:25.084Z,5.40
2022-11-17T03:56:02.949Z,5.50
2022-11-17T03:58:33.265Z,5.20
2022-11-17T04:01:03.474Z,5.83
2022-11-17T04:03:32.578Z,4.93
2022-11-17T04:06:00.607Z,4.17
2022-11-17T04:08:31.650Z,5.40
2022-11-17T04:11:16.806Z,5.20
2022-11-17T04:14:03.223Z,5.30
2022-11-17T04:16:30.443Z,6.23
2022-11-17T04:18:58.862Z,6.00
2022-11-17T04:21:26.392Z,6.00
2022-11-17T04:23:53.679Z,5.67
2022-11-17T04:26:38.828Z,5.90
2022-11-17T04:29:05.851Z,6.20
2022-11-17T04:31:32.814Z,5.57
2022-11-17T04:34:01.503Z,6.40
2022-11-17T04:36:30.585Z,6.67
2022-11-17T04:38:59.356Z,7.47
2022-11-17T04:41:46.610Z,6.90
2022-11-17T04:44:14.970Z,6.57
2022-11-17T04:46:44.544Z,6.70
2022-11-17T04:49:11.994Z,7.20
2022-11-17T04:51:39.452Z,5.63
2022-11-17T04:54:08.635Z,7.90
2022-11-17T04:56:36.547Z,7.80
2022-11-17T04:59:04.831Z,8.20
2022-11-17T05:01:34.702Z,7.07
2022-11-17T05:04:03.822Z,8.50
2022-11-17T05:06:38.865Z,9.27
2022-11-17T05:09:07.862Z,8.77
2022-11-17T05:11:53.720Z,8.70
2022-11-17T05:14:22.782Z,8.87
2022-11-17T05:17:09.911Z,10.17
2022-11-17T05:19:41.238Z,8.60
2022-11-17T05:22:28.781Z,9.53
2022-11-17T05:24:57.816Z,7.37
2022-11-17T05:27:24.808Z,9.33
2022-11-17T05:29:51.858Z,8.80
2022-11-17T05:32:18.894Z,9.40
2022-11-17T05:34:45.898Z,9.07
2022-11-17T05:37:13.188Z,10.10
2022-11-17T05:39:40.041Z,10.80
2022-11-17T05:42:06.594Z,9.37
2022-11-17T05:44:33.651Z,9.07
2022-11-17T05:47:00.440Z,8.90
2022-11-17T05:49:27.512Z,9.33
2022-11-17T05:51:54.242Z,10.30
2022-11-17T05:54:20.873Z,10.10
2022-11-17T05:56:59.598Z,11.80
2022-11-17T05:59:47.936Z,8.50
2022-11-17T06:02:22.154Z,9.30
2022-11-17T06:04:50.154Z,7.90
2022-11-17T06:07:18.176Z,9.67
2022-11-17T06:09:46.233Z,9.07
2022-11-17T06:12:12.971Z,10.00
2022-11-17T06:14:39.764Z,9.03
2022-11-17T06:17:22.872Z,9.30
2022-11-17T06:20:05.979Z,8.77
2022-11-17T06:22:33.541Z,9.93
2022-11-17T06:25:02.814Z,10.90
2022-11-17T06:27:31.818Z,9.23
2022-11-17T06:30:01.628Z,10.70
2022-11-17T06:32:28.645Z,9.47
2022-11-17T06:34:56.619Z,8.90
2022-11-17T06:37:24.693Z,9.23
2022-11-17T06:39:51.617Z,10.60
2022-11-17T06:42:19.001Z,8.50
2022-11-17T06:44:45.761Z,11.93
2022-11-17T06:47:12.744Z,10.40
2022-11-17T06:49:39.288Z,11.17
2022-11-17T06:52:05.810Z,11.57
2022-11-17T06:54:32.651Z,10.40
2022-11-17T06:56:59.878Z,9.53
2022-11-17T06:59:26.640Z,10.53
2022-11-17T07:01:53.209Z,12.30
2022-11-17T07:04:19.727Z,8.93
2022-11-17T07:06:46.860Z,8.43
2022-11-17T07:09:13.561Z,12.27
2022-11-17T07:11:40.315Z,11.60
2022-11-17T07:14:07.147Z,12.30
2022-11-17T07:16:33.892Z,11.50
2022-11-17T07:19:03.322Z,12.93
2022-11-17T07:21:31.087Z,11.17
2022-11-17T07:23:58.291Z,12.40
2022-11-17T07:26:24.959Z,7.83
2022-11-17T07:28:51.587Z,9.50
2022-11-17T07:31:19.365Z,10.53
2022-11-17T07:33:46.564Z,9.60
2022-11-17T07:36:17.339Z,10.60
2022-11-17T07:38:43.956Z,9.00
2022-11-17T07:41:13.540Z,11.73
2022-11-17T07:43:40.576Z,9.10
2022-11-17T07:46:10.349Z,9.70
2022-11-17T07:48:40.241Z,9.50
2022-11-17T07:51:06.862Z,10.30
2022-11-17T07:53:35.057Z,8.83
2022-11-17T07:56:06.185Z,12.77
2022-11-17T07:58:33.565Z,11.83
2022-11-17T08:01:05.497Z,10.30
2022-11-17T08:03:32.169Z,12.37
2022-11-17T08:06:02.754Z,9.67
2022-11-17T08:08:29.915Z,10.93
2022-11-17T08:10:56.571Z,10.10
2022-11-17T08:13:24.187Z,11.20
2022-11-17T08:15:56.844Z,10.13
2022-11-17T08:18:23.643Z,10.60
2022-11-17T08:20:50.423Z,11.33
2022-11-17T08:23:17.202Z,10.80
2022-11-17T08:25:43.932Z,10.90
2022-11-17T08:28:10.559Z,9.90
2022-11-17T08:30:37.123Z,12.60
2022-11-17T08:33:04.054Z,8.50
2022-11-17T08:35:37.281Z,11.03
2022-11-17T08:38:04.488Z,11.23
2022-11-17T08:40:31.090Z,9.67
2022-11-17T08:43:01.713Z,11.40
2022-11-17T08:45:28.779Z,11.20
2022-11-17T08:47:58.499Z,8.83
2022-11-17T08:50:25.687Z,11.10
2022-11-17T08:52:53.233Z,11.23
2022-11-17T08:55:19.949Z,9.20
2022-11-17T08:57:47.131Z,8.57
2022-11-17T09:00:14.515Z,10.40
2022-11-17T09:02:41.053Z,8.73
2022-11-17T09:05:08.354Z,10.30
2022-11-17T09:07:35.734Z,7.17
2022-11-17T09:10:04.598Z,7.27
2022-11-17T09:12:31.246Z,7.80
2022-11-17T09:14:57.843Z,8.40
2022-11-17T09:17:24.886Z,8.90
2022-11-17T09:19:51.438Z,9.50
2022-11-17T09:22:19.714Z,9.23
2022-11-17T09:24:46.256Z,7.73
2022-11-17T09:27:13.838Z,7.03
2022-11-17T09:29:40.439Z,9.40
2022-11-17T09:32:06.995Z,8.67
2022-11-17T09:34:33.606Z,9.27
2022-11-17T09:37:00.557Z,8.60
2022-11-17T09:39:27.216Z,6.70
2022-11-17T09:41:56.183Z,7.60
2022-11-17T09:44:31.703Z,6.80
2022-11-17T09:47:18.766Z,7.80
2022-11-17T09:50:02.628Z,6.27
2022-11-17T09:52:36.891Z,7.43
2022-11-17T09:55:09.205Z,10.27
2022-11-17T09:57:41.979Z,8.17
2022-11-17T10:00:18.371Z,8.23
2022-11-17T10:02:45.340Z,6.03
2022-11-17T10:05:16.139Z,8.20
2022-11-17T10:07:49.483Z,5.60
2022-11-17T10:10:25.130Z,7.83
2022-11-17T10:12:57.175Z,6.40
2022-11-17T10:15:37.870Z,6.90
2022-11-17T10:18:12.403Z,6.27
2022-11-17T10:20:40.477Z,7.60
2022-11-17T10:23:12.201Z,7.93
2022-11-17T10:25:41.679Z,7.40
2022-11-17T10:28:24.585Z,6.50
2022-11-17T10:31:15.998Z,6.13
2022-11-17T10:33:45.432Z,6.07
2022-11-17T10:36:29.029Z,6.20
2022-11-17T10:38:58.106Z,8.07
2022-11-17T10:41:30.710Z,6.40
2022-11-17T10:44:04.605Z,6.30
2022-11-17T10:46:43.263Z,5.70
2022-11-17T10:49:25.018Z,5.80
2022-11-17T10:52:16.107Z,6.60
2022-11-17T10:54:43.280Z,4.93
2022-11-17T10:57:26.545Z,5.80
2022-11-17T10:59:57.626Z,6.30
2022-11-17T11:02:27.165Z,6.13
2022-11-17T11:05:07.861Z,6.60
2022-11-17T11:07:35.301Z,5.20
2022-11-17T11:10:15.049Z,4.67
2022-11-17T11:12:50.230Z,5.13
2022-11-17T11:15:21.566Z,5.90
2022-11-17T11:17:48.466Z,4.57
2022-11-17T11:20:17.769Z,4.00
2022-11-17T11:22:57.660Z,3.80
2022-11-17T11:25:40.737Z,5.73
2022-11-17T11:28:25.981Z,4.30
2022-11-17T11:31:10.297Z,4.50
2022-11-17T11:33:41.374Z,3.50
2022-11-17T11:36:50.040Z,3.30
2022-11-17T11:39:39.144Z,4.83
2022-11-17T11:42:24.541Z,3.57
2022-11-17T11:45:26.190Z,5.07
2022-11-17T11:48:17.199Z,4.53
2022-11-17T11:50:43.839Z,4.30
2022-11-17T11:53:22.241Z,3.97
2022-11-17T11:55:53.998Z,4.83
2022-11-17T11:58:24.755Z,4.53
2022-11-17T12:01:04.795Z,3.90
2022-11-17T12:03:36.408Z,4.43
2022-11-17T12:06:30.953Z,4.03
2022-11-17T12:09:08.486Z,5.30
2022-11-17T12:11:58.004Z,3.97
2022-11-17T12:14:25.004Z,4.30
2022-11-17T12:17:01.738Z,5.20
2022-11-17T12:19:55.262Z,3.67
2022-11-17T12:22:33.979Z,5.37
2022-11-17T12:25:03.993Z,4.80
2022-11-17T12:27:33.610Z,4.70
2022-11-17T12:30:04.601Z,5.07
2022-11-17T12:32:43.810Z,4.30
2022-11-17T12:35:26.771Z,3.93
2022-11-17T12:38:18.104Z,3.60
2022-11-17T12:40:49.681Z,4.87
2022-11-17T12:43:16.347Z,3.90
2022-11-17T12:45:57.847Z,5.20
2022-11-17T12:48:38.600Z,4.67
2022-11-17T12:51:14.287Z,4.27
2022-11-17T12:54:05.374Z,3.77
2022-11-17T12:57:00.903Z,4.33
2022-11-17T12:59:30.182Z,4.50
2022-11-17T13:02:18.728Z,3.90
2022-11-17T13:05:00.162Z,4.10
2022-11-17T13:07:27.402Z,4.20
2022-11-17T13:09:58.922Z,4.80
2022-11-17T13:12:30.731Z,4.00
2022-11-17T13:15:04.613Z,4.50
2022-11-17T13:17:55.140Z,3.80
2022-11-17T13:20:30.502Z,3.97
2022-11-17T13:23:09.298Z,4.27
2022-11-17T13:25:35.981Z,5.10
2022-11-17T13:28:05.250Z,4.70
2022-11-17T13:30:33.187Z,4.60
2022-11-17T13:33:03.091Z,5.37
2022-11-17T13:35:32.701Z,3.43
2022-11-17T13:38:11.491Z,4.07
2022-11-17T13:40:40.390Z,3.37
2022-11-17T13:43:12.817Z,3.93
2022-11-17T13:45:40.522Z,4.20
2022-11-17T13:48:34.166Z,4.30
2022-11-17T13:51:19.481Z,4.17
2022-11-17T13:53:56.943Z,4.80
2022-11-17T13:56:31.656Z,3.40
2022-11-17T13:59:01.104Z,3.70
2022-11-17T14:01:29.517Z,4.77
2022-11-17T14:04:31.659Z,3.43
2022-11-17T14:07:00.710Z,3.53
2022-11-17T14:09:30.616Z,4.10
2022-11-17T14:11:58.785Z,4.70
2022-11-17T14:14:44.929Z,4.30
2022-11-17T14:17:20.249Z,3.00
2022-11-17T14:19:47.802Z,3.60
2022-11-17T14:22:22.364Z,4.63
2022-11-17T14:24:51.914Z,4.00
2022-11-17T14:27:31.753Z,3.63
2022-11-17T14:29:58.539Z,3.77
2022-11-17T14:32:25.087Z,3.80
2022-11-17T14:34:51.883Z,3.80
2022-11-17T14:37:18.647Z,3.97
2022-11-17T14:39:45.191Z,4.00
2022-11-17T14:42:11.756Z,3.57
2022-11-17T14:44:38.365Z,4.33
2022-11-17T14:47:04.934Z,3.60
2022-11-17T14:49:31.826Z,3.93
2022-11-17T14:51:59.158Z,3.33
2022-11-17T14:54:26.309Z,3.80
2022-11-17T14:56:52.882Z,3.43
2022-11-17T14:59:19.786Z,2.77
2022-11-17T15:01:46.441Z,3.50
2022-11-17T15:04:48.226Z,3.27
2022-11-17T15:07:03.299Z,3.13
2022-11-17T15:09:31.357Z,3.70
2022-11-17T15:11:57.940Z,3.87
2022-11-17T15:14:24.626Z,4.17
2022-11-17T15:16:51.257Z,3.60
2022-11-17T15:19:17.837Z,3.70
2022-11-17T15:21:44.599Z,3.87
2022-11-17T15:24:11.149Z,4.23
2022-11-17T15:26:38.146Z,4.80
2022-11-17T15:29:04.930Z,3.70
2022-11-17T15:31:31.559Z,4.13
2022-11-17T15:33:58.193Z,4.97
2022-11-17T15:36:25.498Z,3.93
2022-11-17T15:38:53.300Z,3.30
2022-11-17T15:41:20.243Z,4.27
2022-11-17T15:43:46.831Z,3.70
2022-11-17T15:46:15.910Z,4.07
2022-11-17T15:48:44.460Z,3.90
2022-11-17T15:51:12.277Z,3.43
2022-11-17T15:53:39.520Z,4.30
2022-11-17T15:56:08.926Z,4.10
2022-11-17T15:58:36.146Z,3.83
2022-11-17T16:01:27.797Z,3.57
2022-11-17T16:04:00.816Z,3.30
2022-11-17T16:06:28.518Z,3.50
2022-11-17T16:08:55.362Z,3.13
2022-11-17T16:11:22.202Z,3.80
2022-11-17T16:13:52.043Z,4.37
2022-11-17T16:16:18.670Z,3.87
2022-11-17T16:18:45.229Z,5.40
2022-11-17T16:21:14.265Z,4.50
2022-11-17T16:23:47.750Z,4.67
2022-11-17T16:26:16.834Z,3.60
2022-11-17T16:28:43.494Z,4.70
2022-11-17T16:31:22.273Z,4.80
2022-11-17T16:33:50.720Z,5.37
2022-11-17T16:36:18.280Z,3.40
2022-11-17T16:39:02.318Z,3.60
2022-11-17T16:41:34.544Z,2.83
2022-11-17T16:44:01.691Z,4.27
2022-11-17T16:46:30.971Z,4.13
2022-11-17T16:49:02.238Z,5.17
2022-11-17T16:51:29.144Z,4.40
2022-11-17T16:53:58.194Z,3.53
2022-11-17T16:56:25.163Z,3.37
2022-11-17T16:58:52.463Z,4.27
2022-11-17T17:01:22.131Z,4.23
2022-11-17T17:03:48.714Z,3.87
2022-11-17T17:06:17.664Z,4.17
2022-11-17T17:08:44.940Z,4.20
2022-11-17T17:11:15.558Z,3.83
2022-11-17T17:13:42.748Z,4.17
2022-11-17T17:16:12.295Z,4.50
2022-11-17T17:18:39.906Z,4.03
2022-11-17T17:21:09.909Z,3.37
2022-11-17T17:23:36.716Z,4.57
2022-11-17T17:26:09.145Z,4.30
2022-11-17T17:28:37.085Z,3.70
2022-11-17T17:31:04.518Z,3.73
2022-11-17T17:33:32.466Z,4.00
2022-11-17T17:36:14.131Z,4.30
2022-11-17T17:38:41.943Z,4.17
2022-11-17T17:41:10.563Z,3.77
2022-11-17T17:43:37.857Z,4.10
2022-11-17T17:46:08.445Z,3.57
2022-11-17T17:48:39.949Z,3.20
2022-11-17T17:51:10.248Z,3.50
2022-11-17T17:53:37.440Z,4.37
2022-11-17T17:56:09.636Z,3.53
2022-11-17T17:58:40.525Z,3.80
2022-11-17T18:01:16.824Z,3.57
2022-11-17T18:03:46.304Z,3.80
2022-11-17T18:06:14.174Z,3.37
2022-11-17T18:08:41.641Z,4.13
2022-11-17T18:11:12.681Z,4.47
2022-11-17T18:13:41.613Z,4.00
2022-11-17T18:16:13.756Z,4.40
2022-11-17T18:18:42.027Z,3.93
2022-11-17T18:21:14.566Z,4.43
2022-11-17T18:23:41.526Z,4.10
2022-11-17T18:26:26.212Z,4.30
2022-11-17T18:29:01.214Z,4.27
2022-11-17T18:31:30.242Z,4.60
2022-11-17T18:33:59.400Z,4.10
2022-11-17T18:36:26.570Z,4.43
2022-11-17T18:38:53.199Z,3.67
2022-11-17T18:41:21.597Z,4.80
2022-11-17T18:43:48.517Z,4.00
2022-11-17T18:46:22.732Z,4.70
2022-11-17T18:48:51.776Z,3.87
2022-11-17T18:51:23.653Z,3.77
2022-11-17T18:53:51.759Z,3.87
2022-11-17T18:56:24.457Z,5.10
2022-11-17T18:58:51.625Z,3.93
2022-11-17T19:01:24.141Z,4.40
2022-11-17T19:03:53.439Z,3.73
2022-11-17T19:06:22.134Z,4.33
2022-11-17T19:08:49.864Z,4.77
2022-11-17T19:11:18.221Z,4.63
2022-11-17T19:13:45.670Z,5.27
2022-11-17T19:16:14.742Z,4.57
2022-11-17T19:18:43.498Z,3.47
2022-11-17T19:21:15.576Z,5.47
2022-11-17T19:23:50.797Z,4.50
2022-11-17T19:26:21.622Z,4.30
2022-11-17T19:28:48.770Z,3.57
2022-11-17T19:31:20.200Z,3.77
2022-11-17T19:33:48.163Z,3.50
2022-11-17T19:36:21.252Z,4.43
2022-11-17T19:38:50.098Z,4.03
2022-11-17T19:41:20.434Z,4.20
2022-11-17T19:43:47.745Z,3.03
2022-11-17T19:46:16.617Z,3.53
2022-11-17T19:48:44.396Z,3.40
2022-11-17T19:51:13.170Z,4.10
2022-11-17T19:53:40.894Z,4.60
2022-11-17T19:56:08.199Z,3.83
2022-11-17T19:58:35.505Z,3.30
2022-11-17T20:01:13.724Z,3.30
2022-11-17T20:03:41.666Z,4.70
2022-11-17T20:06:10.215Z,3.70
2022-11-17T20:08:37.171Z,3.33
2022-11-17T20:11:09.684Z,4.10
2022-11-17T20:13:37.135Z,3.90
2022-11-17T20:16:11.469Z,3.80
2022-11-17T20:18:38.722Z,3.90
2022-11-17T20:21:06.945Z,3.20
2022-11-17T20:23:34.814Z,3.83
2022-11-17T20:26:11.782Z,3.63
2022-11-17T20:28:39.414Z,3.30
2022-11-17T20:31:11.894Z,3.17
2022-11-17T20:33:40.394Z,3.57
2022-11-17T20:36:09.010Z,3.40
2022-11-17T20:38:36.065Z,3.70
2022-11-17T20:41:05.080Z,4.40
2022-11-17T20:43:32.860Z,2.33
2022-11-17T20:46:00.463Z,3.83
2022-11-17T20:48:28.983Z,3.50
2022-11-17T20:51:01.886Z,4.03
2022-11-17T20:53:29.094Z,3.50
2022-11-17T20:56:00.989Z,3.53
2022-11-17T20:58:28.779Z,4.10
2022-11-17T21:00:55.864Z,3.83
2022-11-17T21:03:23.525Z,4.23
2022-11-17T21:05:59.168Z,3.80
2022-11-17T21:08:28.716Z,3.07
2022-11-17T21:11:00.665Z,4.03
2022-11-17T21:13:28.112Z,3.77
2022-11-17T21:16:24.118Z,4.00
2022-11-17T21:18:50.986Z,4.20
2022-11-17T21:21:17.815Z,4.23
2022-11-17T21:23:44.670Z,4.13
2022-11-17T21:26:13.571Z,4.90
2022-11-17T21:28:41.715Z,4.77
2022-11-17T21:31:16.547Z,4.37
2022-11-17T21:33:44.779Z,4.13
2022-11-17T21:36:16.467Z,4.63
2022-11-17T21:38:46.759Z,5.57
2022-11-17T21:41:16.406Z,5.30
2022-11-17T21:43:45.524Z,4.70
2022-11-17T21:46:15.877Z,4.80
2022-11-17T21:48:42.962Z,5.27
2022-11-17T21:51:18.666Z,4.60
2022-11-17T21:54:06.834Z,5.20
2022-11-17T21:56:51.946Z,5.30
2022-11-17T21:59:19.093Z,5.37
2022-11-17T22:01:45.840Z,6.13
2022-11-17T22:04:13.142Z,4.60
2022-11-17T22:06:39.723Z,6.30
2022-11-17T22:09:07.375Z,6.27
2022-11-17T22:11:35.302Z,5.43
2022-11-17T22:14:07.207Z,5.93
2022-11-17T22:16:35.942Z,4.93
2022-11-17T22:19:03.041Z,5.80
2022-11-17T22:21:29.685Z,6.30
2022-11-17T22:23:56.509Z,7.07
2022-11-17T22:26:23.381Z,6.40
2022-11-17T22:28:52.119Z,5.70
2022-11-17T22:31:19.157Z,6.27
2022-11-17T22:33:46.716Z,4.77
2022-11-17T22:36:13.706Z,6.00
2022-11-17T22:38:40.264Z,6.33
2022-11-17T22:41:07.369Z,6.27
2022-11-17T22:43:34.291Z,6.10
2022-11-17T22:46:02.940Z,5.50
2022-11-17T22:48:29.665Z,6.73
2022-11-17T22:51:00.005Z,7.10
2022-11-17T22:53:27.428Z,5.80
2022-11-17T22:55:54.468Z,6.37
2022-11-17T22:58:21.192Z,6.93
2022-11-17T23:00:47.726Z,6.30
2022-11-17T23:03:14.331Z,7.70
2022-11-17T23:05:40.955Z,7.33
2022-11-17T23:08:09.968Z,7.67
2022-11-17T23:10:37.206Z,7.10
2022-11-17T23:13:04.168Z,7.87
2022-11-17T23:15:32.011Z,7.20
2022-11-17T23:17:58.980Z,8.23
2022-11-17T23:20:25.645Z,7.80
2022-11-17T23:22:53.979Z,8.53
2022-11-17T23:25:20.799Z,8.10
2022-11-17T23:27:48.174Z,8.17
2022-11-17T23:30:14.718Z,8.13
2022-11-17T23:32:41.670Z,9.20
2022-11-17T23:35:09.048Z,7.90
2022-11-17T23:37:35.607Z,8.20
2022-11-17T23:40:02.232Z,7.73
2022-11-17T23:42:32.392Z,9.03
2022-11-17T23:44:59.576Z,7.87
2022-11-17T23:47:26.221Z,8.33
2022-11-17T23:49:52.837Z,6.77
2022-11-17T23:52:19.820Z,7.13
2022-11-17T23:54:46.358Z,8.57
2022-11-17T23:57:12.877Z,7.80
2022-11-17T23:59:39.512Z,8.60
